Time;durP1;ratioP1;P1;durP2;ratioP2;P2;SDS_P1;SDS_P2;PMS_P1;PMS_P2;Temp;Humidity;BMP_temperature;BMP_pressure;BME280_temperature;BME280_humidity;BME280_pressure;Samples;Min_cycle;Max_cycle;Signal;HPM_P1;HPM_P2
2021/11/05 00:01:16;;;;;;;2.67;0.38;;;;;;;7.06;100.00;101755.28;4821043;29;20033;-87
2021/11/05 00:03:42;;;;;;;4.50;0.35;;;;;;;7.04;100.00;101759.63;4854080;29;20049;-87
2021/11/05 00:06:07;;;;;;;2.58;0.50;;;;;;;7.05;100.00;101763.97;4848513;29;20080;-87
2021/11/05 00:08:33;;;;;;;0.63;0.30;;;;;;;7.06;100.00;101773.53;4839634;29;20226;-87
2021/11/05 00:10:58;;;;;;;2.67;0.35;;;;;;;7.04;100.00;101768.34;4832176;29;20219;-87
2021/11/05 00:13:23;;;;;;;2.40;0.55;;;;;;;7.04;100.00;101767.44;4846932;29;20052;-87
2021/11/05 00:15:49;;;;;;;3.60;0.50;;;;;;;7.01;100.00;101762.28;4818980;29;20064;-87
2021/11/05 00:18:15;;;;;;;0.73;0.25;;;;;;;6.98;99.92;101763.16;4827154;29;20046;-86
2021/11/05 00:20:40;;;;;;;0.45;0.30;;;;;;;6.97;99.92;101765.78;4857410;29;20048;-87
2021/11/05 00:23:05;;;;;;;2.20;0.40;;;;;;;6.94;100.00;101761.47;4833529;29;20033;-87
2021/11/05 00:25:31;;;;;;;2.78;0.60;;;;;;;6.92;99.96;101761.50;4865607;29;20045;-87
2021/11/05 00:27:56;;;;;;;0.77;0.20;;;;;;;6.90;99.96;101771.06;4853084;29;20450;-87
2021/11/05 00:30:22;;;;;;;2.92;0.43;;;;;;;6.84;99.84;101772.88;4854850;29;20426;-87
2021/11/05 00:32:47;;;;;;;2.28;0.43;;;;;;;6.77;100.00;101782.50;4817373;29;20045;-87
2021/11/05 00:35:13;;;;;;;3.20;0.50;;;;;;;6.71;99.97;101780.81;4833983;29;20041;-87
2021/11/05 00:37:39;;;;;;;3.00;0.57;;;;;;;6.66;99.99;101777.41;4834060;29;20041;-87
2021/11/05 00:40:05;;;;;;;3.83;0.40;;;;;;;6.60;99.85;101782.63;4833832;29;20064;-87
2021/11/05 00:42:31;;;;;;;4.15;0.38;;;;;;;6.55;99.93;101794.84;4829035;29;20108;-87
2021/11/05 00:44:56;;;;;;;3.70;0.60;;;;;;;6.48;99.70;101799.25;4846567;29;20055;-87
2021/11/05 00:47:22;;;;;;;1.85;0.40;;;;;;;6.41;99.70;101802.75;4849385;29;20220;-87
2021/11/05 00:49:47;;;;;;;2.28;0.38;;;;;;;6.41;99.80;101807.13;4834273;29;20040;-87
2021/11/05 00:52:13;;;;;;;1.25;0.30;;;;;;;6.39;99.86;101809.72;4830266;29;20556;-87
2021/11/05 00:54:38;;;;;;;1.38;0.50;;;;;;;6.37;99.98;101814.09;4849229;29;20049;-87
2021/11/05 00:57:04;;;;;;;2.60;0.40;;;;;;;6.36;99.95;101806.28;4833896;29;20046;-87
2021/11/05 00:59:29;;;;;;;3.03;0.63;;;;;;;6.34;100.00;101817.56;4832840;29;20044;-87
2021/11/05 01:01:55;;;;;;;3.15;0.73;;;;;;;6.34;99.99;101816.69;4834171;29;20271;-87
2021/11/05 01:04:20;;;;;;;2.83;0.60;;;;;;;6.36;100.00;101816.69;4848935;29;20421;-87
2021/11/05 01:06:46;;;;;;;7.40;0.60;;;;;;;6.30;100.00;101822.81;4833803;29;20256;-87
2021/11/05 01:09:11;;;;;;;4.05;0.70;;;;;;;6.32;100.00;101819.31;4848701;29;20056;-87
2021/11/05 01:11:37;;;;;;;4.25;0.60;;;;;;;6.36;100.00;101827.09;4817425;29;20041;-87
2021/11/05 01:14:02;;;;;;;2.30;0.50;;;;;;;6.37;100.00;101831.41;4832912;29;20049;-87
2021/11/05 01:16:28;;;;;;;0.75;0.47;;;;;;;6.38;100.00;101826.19;4847312;29;20034;-87
2021/11/05 01:18:53;;;;;;;6.80;0.95;;;;;;;6.44;100.00;101830.50;4848880;29;20053;-87
2021/11/05 01:21:19;;;;;;;2.15;0.63;;;;;;;6.44;100.00;101827.88;4848196;29;20060;-87
2021/11/05 01:23:44;;;;;;;2.95;0.50;;;;;;;6.48;100.00;101827.00;4833685;29;20252;-87
2021/11/05 01:26:09;;;;;;;1.95;0.50;;;;;;;6.49;100.00;101839.13;4833426;29;20033;-87
2021/11/05 01:28:35;;;;;;;7.43;1.10;;;;;;;6.48;100.00;101827.00;4831825;29;20225;-87
2021/11/05 01:31:00;;;;;;;1.85;0.90;;;;;;;6.47;100.00;101836.53;4848533;29;20387;-87
2021/11/05 01:33:26;;;;;;;2.17;0.68;;;;;;;6.51;100.00;101829.56;4833585;29;20045;-87
2021/11/05 01:35:52;;;;;;;4.70;0.70;;;;;;;6.51;100.00;101842.56;4818205;29;20037;-87
2021/11/05 01:38:17;;;;;;;5.32;1.13;;;;;;;6.52;100.00;101850.38;4848363;29;20241;-87
2021/11/05 01:40:43;;;;;;;2.33;0.93;;;;;;;6.53;100.00;101848.63;4837102;29;20076;-87
2021/11/05 01:43:09;;;;;;;6.38;1.75;;;;;;;6.52;100.00;101842.56;4814981;29;20038;-87
2021/11/05 01:45:34;;;;;;;6.18;1.10;;;;;;;6.53;100.00;101853.84;4840116;29;20040;-87
2021/11/05 01:48:00;;;;;;;2.15;0.60;;;;;;;6.51;100.00;101847.78;4817929;29;20328;-87
2021/11/05 01:50:25;;;;;;;1.77;0.73;;;;;;;6.53;100.00;101846.03;4848448;29;20329;-87
2021/11/05 01:52:51;;;;;;;5.95;1.27;;;;;;;6.54;100.00;101856.44;4848459;29;20053;-87
2021/11/05 01:55:16;;;;;;;3.88;1.20;;;;;;;6.53;100.00;101844.31;4833255;29;20205;-87
2021/11/05 01:57:42;;;;;;;4.10;0.77;;;;;;;6.54;100.00;101858.19;4848380;29;20278;-87
2021/11/05 02:00:08;;;;;;;4.25;1.10;;;;;;;6.54;100.00;101848.63;4846780;29;20144;-87
2021/11/05 02:02:34;;;;;;;7.90;1.00;;;;;;;6.53;100.00;101852.13;4833418;29;20065;-87
2021/11/05 02:04:59;;;;;;;5.18;1.05;;;;;;;6.53;100.00;101852.13;4833223;29;20340;-87
2021/11/05 02:07:27;;;;;;;3.35;1.08;;;;;;;6.54;100.00;101861.63;4832535;29;20033;-87
2021/11/05 02:09:52;;;;;;;6.90;1.02;;;;;;;6.51;100.00;101858.19;4848277;29;20049;-87
2021/11/05 02:12:18;;;;;;;2.08;0.90;;;;;;;6.45;100.00;101855.66;4832996;29;20074;-87
2021/11/05 02:14:44;;;;;;;2.25;0.90;;;;;;;6.36;100.00;101858.31;4832955;29;20063;-87
2021/11/05 02:17:10;;;;;;;2.80;0.98;;;;;;;6.33;100.00;101849.66;4833199;29;20033;-86
2021/11/05 02:19:35;;;;;;;3.38;0.98;;;;;;;6.30;100.00;101860.09;4833284;29;20328;-86
2021/11/05 02:22:01;;;;;;;4.97;1.00;;;;;;;6.28;100.00;101860.97;4829047;29;20041;-86
2021/11/05 02:24:27;;;;;;;2.83;0.80;;;;;;;6.25;100.00;101861.84;4848184;29;20021;-87
2021/11/05 02:26:53;;;;;;;3.00;0.93;;;;;;;6.21;100.00;101864.50;4818265;29;20029;-87
2021/11/05 02:29:19;;;;;;;1.77;0.90;;;;;;;6.12;100.00;101870.59;4835524;29;20032;-87
2021/11/05 02:31:44;;;;;;;4.90;1.42;;;;;;;6.06;100.00;101871.50;4821474;29;20112;-87
2021/11/05 02:34:10;;;;;;;4.15;1.00;;;;;;;6.02;100.00;101879.31;4834854;29;20463;-87
2021/11/05 02:36:35;;;;;;;3.60;1.17;;;;;;;5.97;100.00;101876.75;4849472;29;20045;-87
2021/11/05 02:39:07;;;;;;;4.97;1.38;;;;;;;5.97;100.00;101881.97;4819339;29;20029;-87
2021/11/05 02:41:32;;;;;;;4.93;1.52;;;;;;;5.92;100.00;101876.72;4835017;29;20037;-87
2021/11/05 02:43:58;;;;;;;5.95;1.50;;;;;;;5.83;100.00;101876.78;4832343;29;20282;-87
2021/11/05 02:46:23;;;;;;;4.55;1.27;;;;;;;5.82;100.00;101877.66;4849613;29;20418;-87
2021/11/05 02:48:48;;;;;;;4.45;1.55;;;;;;;5.83;100.00;101879.38;4851048;29;20085;-87
2021/11/05 02:51:14;;;;;;;5.22;1.15;;;;;;;5.83;100.00;101883.72;4835293;29;20060;-87
2021/11/05 02:53:39;;;;;;;7.18;1.33;;;;;;;5.80;100.00;101883.72;4835932;29;20033;-86
2021/11/05 02:56:05;;;;;;;3.47;1.15;;;;;;;5.71;100.00;101884.63;4835614;29;20394;-87
2021/11/05 02:58:30;;;;;;;3.80;1.25;;;;;;;5.65;100.00;101893.31;4835801;29;20314;-87
2021/11/05 03:00:58;;;;;;;3.58;1.25;;;;;;;5.63;100.00;101886.41;4835457;29;20112;-87
2021/11/05 03:03:24;;;;;;;7.38;1.10;;;;;;;5.62;100.00;101889.84;4850584;29;20045;-87
2021/11/05 03:05:49;;;;;;;6.07;1.17;;;;;;;5.61;100.00;101888.13;4836074;29;20503;-86
2021/11/05 03:08:14;;;;;;;3.15;1.48;;;;;;;5.56;100.00;101890.72;4850848;29;20041;-87
2021/11/05 03:10:40;;;;;;;2.15;1.20;;;;;;;5.53;100.00;101894.22;4819881;29;20057;-87
2021/11/05 03:13:05;;;;;;;4.57;1.33;;;;;;;5.49;100.00;101900.28;4834991;29;20243;-87
2021/11/05 03:15:31;;;;;;;1.98;1.40;;;;;;;5.46;100.00;101905.50;4849977;29;20049;-86
2021/11/05 03:17:57;;;;;;;6.18;1.60;;;;;;;5.43;100.00;101904.63;4820395;29;20076;-87
2021/11/05 03:20:22;;;;;;;4.53;1.70;;;;;;;5.40;100.00;101902.91;4850690;29;20037;-87
2021/11/05 03:22:48;;;;;;;4.07;1.90;;;;;;;5.38;100.00;101900.31;4850584;29;20112;-87
2021/11/05 03:25:14;;;;;;;13.18;3.42;;;;;;;5.36;100.00;101907.22;4850473;29;20048;-87
2021/11/05 03:27:40;;;;;;;7.53;2.20;;;;;;;5.30;100.00;101906.41;4832174;29;20049;-87
2021/11/05 03:30:06;;;;;;;4.88;2.80;;;;;;;5.24;100.00;101907.28;4845061;29;20041;-88
2021/11/05 03:32:32;;;;;;;3.65;2.50;;;;;;;5.24;100.00;101920.25;4834944;29;20382;-88
2021/11/05 03:34:58;;;;;;;7.05;2.90;;;;;;;5.21;100.00;101917.66;4834829;29;20045;-88
2021/11/05 03:37:23;;;;;;;3.75;2.40;;;;;;;5.16;100.00;101924.59;4819680;29;20029;-89
2021/11/05 03:39:48;;;;;;;6.88;3.00;;;;;;;5.13;100.00;101930.66;4834840;29;20377;-88
2021/11/05 03:42:14;;;;;;;5.13;2.80;;;;;;;5.11;100.00;101929.81;4849746;29;20077;-88
2021/11/05 03:44:39;;;;;;;3.30;2.80;;;;;;;5.09;100.00;101930.66;4844603;29;20208;-88
2021/11/05 03:47:05;;;;;;;3.30;2.45;;;;;;;5.07;100.00;101934.97;4849875;29;20333;-89
2021/11/05 03:49:31;;;;;;;5.95;3.20;;;;;;;5.06;100.00;101941.03;4832151;29;20046;-88
2021/11/05 03:51:57;;;;;;;2.72;2.50;;;;;;;5.04;100.00;101946.25;4847449;29;20206;-88
2021/11/05 03:54:23;;;;;;;3.70;2.78;;;;;;;5.03;100.00;101949.69;4801978;29;20112;-87
2021/11/05 03:56:50;;;;;;;4.63;3.00;;;;;;;5.02;100.00;101953.16;4831426;29;20052;-86
2021/11/05 03:59:15;;;;;;;3.63;3.17;;;;;;;5.05;100.00;101954.88;4834324;29;20108;-87
2021/11/05 04:01:41;;;;;;;4.28;2.67;;;;;;;5.06;100.00;101956.59;4834603;29;20099;-86
2021/11/05 04:04:07;;;;;;;4.50;3.00;;;;;;;5.06;100.00;101957.50;4849989;29;20030;-86
2021/11/05 04:06:33;;;;;;;6.18;2.95;;;;;;;5.04;100.00;101960.94;4849588;29;20040;-87
2021/11/05 04:08:58;;;;;;;5.43;3.40;;;;;;;5.00;100.00;101962.66;4819456;29;20042;-87
2021/11/05 04:11:24;;;;;;;6.85;3.60;;;;;;;4.99;100.00;101958.34;4849225;29;20084;-87
2021/11/05 04:13:50;;;;;;;6.15;3.55;;;;;;;4.98;100.00;101977.38;4833671;29;20040;-87
2021/11/05 04:16:15;;;;;;;8.40;3.50;;;;;;;4.96;100.00;101974.78;4866697;29;20041;-87
2021/11/05 04:18:41;;;;;;;4.65;3.35;;;;;;;4.95;100.00;101977.41;4849586;29;20037;-87
2021/11/05 04:21:06;;;;;;;3.20;2.85;;;;;;;4.92;100.00;101978.25;4834574;29;20037;-87
2021/11/05 04:23:33;;;;;;;6.80;3.03;;;;;;;4.92;100.00;101987.78;4819208;29;20025;-87
2021/11/05 04:25:58;;;;;;;4.15;3.35;;;;;;;4.90;100.00;101992.09;4834838;29;20052;-86
2021/11/05 04:28:24;;;;;;;4.68;3.28;;;;;;;4.89;100.00;101990.34;4835580;29;20037;-86
2021/11/05 04:30:49;;;;;;;5.30;2.95;;;;;;;4.87;100.00;101994.69;4842520;29;20049;-87
2021/11/05 04:33:15;;;;;;;8.30;3.00;;;;;;;4.84;100.00;101995.56;4866200;29;20037;-86
2021/11/05 04:35:40;;;;;;;4.72;2.80;;;;;;;4.79;100.00;102000.72;4834261;29;20049;-87
2021/11/05 04:38:06;;;;;;;3.42;2.60;;;;;;;4.76;100.00;102011.09;4849149;29;20108;-87
2021/11/05 04:40:32;;;;;;;2.22;2.03;;;;;;;4.72;100.00;102006.75;4834100;29;20038;-87
2021/11/05 04:42:57;;;;;;;2.88;2.42;;;;;;;4.72;100.00;102016.28;4849215;29;20559;-86
2021/11/05 04:45:22;;;;;;;4.88;1.92;;;;;;;4.70;100.00;102013.69;4848496;29;20041;-86
2021/11/05 04:47:48;;;;;;;6.88;1.88;;;;;;;4.68;100.00;102012.81;4834292;29;20037;-86
2021/11/05 04:50:14;;;;;;;2.55;1.65;;;;;;;4.65;100.00;102019.72;4848320;29;20125;-87
2021/11/05 04:52:39;;;;;;;6.22;2.00;;;;;;;4.63;100.00;102024.03;4834107;29;20280;-87
2021/11/05 04:55:05;;;;;;;5.13;2.10;;;;;;;4.59;100.00;102017.97;4818186;29;20325;-88
2021/11/05 04:57:31;;;;;;;7.57;2.40;;;;;;;4.59;100.00;102023.16;4848776;29;20049;-86
2021/11/05 04:59:56;;;;;;;4.45;2.40;;;;;;;4.56;100.00;102031.78;4818274;29;20033;-87
2021/11/05 05:02:22;;;;;;;9.15;2.80;;;;;;;4.56;100.00;102030.94;4848822;29;20063;-86
2021/11/05 05:04:47;;;;;;;3.10;2.28;;;;;;;4.58;100.00;102037.00;4849304;29;20352;-86
2021/11/05 05:07:13;;;;;;;5.20;2.33;;;;;;;4.60;100.00;102037.84;4848761;29;20089;-87
2021/11/05 05:09:38;;;;;;;5.18;2.60;;;;;;;4.62;100.00;102043.94;4832950;29;20060;-86
2021/11/05 05:12:04;;;;;;;3.30;2.40;;;;;;;4.65;100.00;102043.06;4834080;29;20071;-86
2021/11/05 05:14:30;;;;;;;8.00;3.05;;;;;;;4.68;100.00;102051.75;4847637;29;20138;-86
2021/11/05 05:16:55;;;;;;;3.50;2.33;;;;;;;4.72;100.00;102065.59;4833877;29;20352;-86
2021/11/05 05:19:21;;;;;;;3.50;2.33;;;;;;;4.77;100.00;102067.34;4817791;29;20035;-87
2021/11/05 05:21:47;;;;;;;4.50;2.70;;;;;;;4.91;100.00;102063.91;4848976;29;20158;-87
2021/11/05 05:24:12;;;;;;;3.72;2.40;;;;;;;5.00;100.00;102061.31;4848385;29;20060;-86
2021/11/05 05:26:37;;;;;;;5.28;2.03;;;;;;;5.13;100.00;102067.41;4848413;29;20038;-87
2021/11/05 05:29:03;;;;;;;2.08;1.90;;;;;;;5.24;100.00;102067.41;4848649;29;20041;-86
2021/11/05 05:31:29;;;;;;;6.03;2.47;;;;;;;5.31;100.00;102074.34;4848602;29;20108;-86
2021/11/05 05:33:54;;;;;;;7.50;2.45;;;;;;;5.37;100.00;102071.78;4848544;29;20076;-86
2021/11/05 05:36:20;;;;;;;4.70;2.17;;;;;;;5.38;100.00;102082.19;4833041;29;20101;-86
2021/11/05 05:38:45;;;;;;;4.75;2.05;;;;;;;5.38;100.00;102083.88;4864784;29;20350;-86
2021/11/05 05:41:11;;;;;;;4.75;2.50;;;;;;;5.39;100.00;102080.44;4865511;29;20273;-86
2021/11/05 05:43:36;;;;;;;3.63;1.83;;;;;;;5.40;100.00;102087.34;4863518;29;20037;-86
2021/11/05 05:46:02;;;;;;;5.50;2.05;;;;;;;5.42;100.00;102085.66;4848685;29;20064;-86
2021/11/05 05:48:27;;;;;;;5.75;2.20;;;;;;;5.39;100.00;102088.25;4848367;29;20466;-86
2021/11/05 05:50:53;;;;;;;7.97;2.25;;;;;;;5.34;100.00;102087.34;4833278;29;20048;-86
2021/11/05 05:53:20;;;;;;;2.17;1.60;;;;;;;5.31;100.00;102095.13;4847916;29;20049;-86
2021/11/05 05:55:46;;;;;;;7.85;1.85;;;;;;;5.29;100.00;102097.72;4830706;29;20134;-86
2021/11/05 05:58:11;;;;;;;1.85;1.75;;;;;;;5.30;100.00;102099.47;4833051;29;20588;-86
2021/11/05 06:00:37;;;;;;;2.35;1.60;;;;;;;5.29;100.00;102102.06;4848174;29;20269;-87
2021/11/05 06:03:02;;;;;;;2.78;1.75;;;;;;;5.23;100.00;102107.25;4850047;29;20037;-86
2021/11/05 06:05:28;;;;;;;2.45;1.63;;;;;;;5.21;100.00;102115.03;4851265;29;20097;-86
2021/11/05 06:07:53;;;;;;;6.10;1.95;;;;;;;5.19;100.00;102112.44;4851885;29;20213;-86
2021/11/05 06:10:19;;;;;;;4.65;1.70;;;;;;;5.18;100.00;102115.91;4851516;29;20045;-86
2021/11/05 06:12:44;;;;;;;1.92;1.50;;;;;;;5.13;100.00;102122.84;4833191;29;20062;-86
2021/11/05 06:15:10;;;;;;;2.22;1.40;;;;;;;5.11;100.00;102118.47;4809415;29;20068;-87
2021/11/05 06:17:35;;;;;;;3.20;1.60;;;;;;;5.07;100.00;102125.38;4847079;29;20258;-86
2021/11/05 06:20:02;;;;;;;4.88;1.88;;;;;;;5.04;100.00;102130.59;4851793;29;20045;-86
2021/11/05 06:22:28;;;;;;;4.30;1.73;;;;;;;5.03;100.00;102134.03;4836196;29;20154;-86
2021/11/05 06:24:53;;;;;;;3.80;1.50;;;;;;;4.99;100.00;102140.09;4836497;29;20240;-86
2021/11/05 06:27:19;;;;;;;5.32;2.08;;;;;;;4.93;100.00;102138.34;4851035;29;20044;-86
2021/11/05 06:29:44;;;;;;;2.28;1.42;;;;;;;4.88;100.00;102137.47;4820958;29;20037;-86
2021/11/05 06:32:10;;;;;;;2.38;1.90;;;;;;;4.90;100.00;102147.84;4851336;29;20245;-86
2021/11/05 06:34:35;;;;;;;4.40;1.80;;;;;;;4.91;100.00;102152.16;4848973;29;20045;-86
2021/11/05 06:37:01;;;;;;;4.88;2.08;;;;;;;4.87;100.00;102156.47;4849323;29;20053;-86
2021/11/05 06:39:27;;;;;;;2.25;2.10;;;;;;;4.85;100.00;102165.13;4832368;29;20214;-87
2021/11/05 06:41:52;;;;;;;2.08;1.90;;;;;;;4.80;100.00;102153.00;4865440;29;20033;-86
2021/11/05 06:44:18;;;;;;;5.15;1.70;;;;;;;4.80;100.00;102163.41;4817210;29;20056;-86
2021/11/05 06:46:43;;;;;;;4.05;1.98;;;;;;;4.77;100.00;102163.38;4849632;29;20041;-86
2021/11/05 06:49:09;;;;;;;2.38;1.80;;;;;;;4.76;100.00;102168.56;4834211;29;20044;-86
2021/11/05 06:51:34;;;;;;;4.47;1.52;;;;;;;4.77;100.00;102181.53;4856563;29;20037;-86
2021/11/05 06:54:00;;;;;;;2.95;1.50;;;;;;;4.80;100.00;102186.75;4833858;29;20044;-86
2021/11/05 06:56:26;;;;;;;3.33;1.50;;;;;;;4.85;100.00;102193.69;4831550;29;20229;-86
2021/11/05 06:58:52;;;;;;;5.07;1.75;;;;;;;4.91;100.00;102191.09;4832438;29;20363;-86
2021/11/05 07:01:17;;;;;;;4.30;1.67;;;;;;;4.90;100.00;102194.59;4834219;29;20202;-86
2021/11/05 07:03:43;;;;;;;6.90;2.40;;;;;;;4.93;100.00;102190.28;4847694;29;20077;-87
2021/11/05 07:06:09;;;;;;;6.75;2.40;;;;;;;4.96;100.00;102186.81;4849272;29;20037;-87
2021/11/05 07:08:35;;;;;;;3.33;1.98;;;;;;;4.98;100.00;102200.66;4834099;29;20078;-86
2021/11/05 07:11:00;;;;;;;4.95;2.25;;;;;;;4.99;100.00;102203.28;4815407;29;20614;-86
2021/11/05 07:13:26;;;;;;;3.85;1.88;;;;;;;4.99;100.00;102199.81;4824639;29;20025;-87
2021/11/05 07:15:52;;;;;;;4.95;1.70;;;;;;;5.00;100.00;102205.03;4843504;29;20080;-87
2021/11/05 07:18:18;;;;;;;2.15;1.52;;;;;;;5.00;100.00;102212.81;4826675;29;20048;-87
2021/11/05 07:20:44;;;;;;;7.45;1.80;;;;;;;4.97;100.00;102215.38;4840118;29;20041;-87
2021/11/05 07:23:09;;;;;;;3.35;1.38;;;;;;;5.00;100.00;102225.78;4845822;29;20044;-86
2021/11/05 07:25:35;;;;;;;2.72;1.60;;;;;;;5.02;100.00;102231.00;4832196;29;20033;-86
2021/11/05 07:28:00;;;;;;;5.70;2.50;;;;;;;5.01;100.00;102234.44;4847572;29;20025;-86
2021/11/05 07:30:26;;;;;;;4.00;2.20;;;;;;;5.03;100.00;102240.50;4844474;29;20061;-86
2021/11/05 07:32:51;;;;;;;9.40;2.40;;;;;;;5.08;100.00;102244.00;4828311;29;20060;-86
2021/11/05 07:35:19;;;;;;;6.43;1.95;;;;;;;5.12;100.00;102253.53;4833205;29;20077;-88
2021/11/05 07:37:44;;;;;;;9.27;2.35;;;;;;;5.14;100.00;102259.59;4824451;29;20101;-86
2021/11/05 07:40:10;;;;;;;6.10;2.10;;;;;;;5.17;100.00;102261.34;4828812;29;20349;-87
2021/11/05 07:42:36;;;;;;;3.45;2.20;;;;;;;5.21;100.00;102267.44;4833482;29;20037;-86
2021/11/05 07:45:06;;;;;;;5.18;2.80;;;;;;;5.29;100.00;102265.72;4813390;29;20042;-86
2021/11/05 07:47:44;;;;;;;5.28;3.28;;;;;;;5.42;100.00;102282.22;4857402;29;20340;-86
2021/11/05 07:50:14;;;;;;;13.13;3.97;;;;;;;5.55;100.00;102286.63;4843105;29;20237;-86
2021/11/05 07:52:39;;;;;;;14.00;4.45;;;;;;;5.68;100.00;102278.00;4824413;29;20041;-87
2021/11/05 07:55:07;;;;;;;11.00;4.25;;;;;;;5.76;100.00;102281.47;4839646;29;20074;-86
2021/11/05 07:57:32;;;;;;;9.98;3.55;;;;;;;5.84;100.00;102291.91;4838363;29;20029;-87
2021/11/05 07:59:58;;;;;;;9.48;3.78;;;;;;;5.90;100.00;102296.25;4824527;29;20433;-87
2021/11/05 08:02:24;;;;;;;9.85;4.18;;;;;;;5.95;100.00;102300.63;4826054;29;20049;-86
2021/11/05 08:04:49;;;;;;;19.45;4.55;;;;;;;5.99;100.00;102306.69;4845548;29;20307;-86
2021/11/05 08:07:15;;;;;;;17.05;4.68;;;;;;;6.01;100.00;102304.97;4826502;29;20037;-87
2021/11/05 08:09:40;;;;;;;11.63;3.83;;;;;;;6.05;100.00;102308.44;4813463;29;20118;-86
2021/11/05 08:12:06;;;;;;;21.15;4.18;;;;;;;6.07;100.00;102319.69;4832064;29;20046;-86
2021/11/05 08:14:31;;;;;;;11.00;4.60;;;;;;;6.06;100.00;102321.44;4826371;29;20052;-87
2021/11/05 08:16:57;;;;;;;12.40;4.18;;;;;;;6.10;100.00;102319.72;4839258;29;20048;-86
2021/11/05 08:19:22;;;;;;;6.47;3.58;;;;;;;6.09;100.00;102323.16;4829140;29;20154;-86
2021/11/05 08:21:48;;;;;;;10.55;3.92;;;;;;;6.10;100.00;102322.31;4823333;29;20045;-86
2021/11/05 08:24:13;;;;;;;5.28;3.30;;;;;;;6.13;100.00;102330.09;4828194;29;20033;-86
2021/11/05 08:26:39;;;;;;;8.95;3.78;;;;;;;6.17;100.00;102330.97;4842488;29;20266;-86
2021/11/05 08:29:05;;;;;;;8.65;3.92;;;;;;;6.18;100.00;102333.59;4812580;29;20238;-87
2021/11/05 08:31:31;;;;;;;6.50;3.42;;;;;;;6.21;100.00;102338.81;4815545;29;20154;-87
2021/11/05 08:33:56;;;;;;;7.00;4.13;;;;;;;6.25;100.00;102339.69;4841197;29;20045;-86
2021/11/05 08:36:24;;;;;;;5.25;3.67;;;;;;;6.30;100.00;102341.41;4843306;29;20132;-86
2021/11/05 08:38:50;;;;;;;15.43;4.60;;;;;;;6.34;100.00;102345.75;4816732;29;20120;-87
2021/11/05 08:41:18;;;;;;;5.80;3.97;;;;;;;6.43;100.00;102347.50;4846773;29;20068;-87
2021/11/05 08:43:51;;;;;;;8.13;4.13;;;;;;;6.52;100.00;102351.84;4848674;29;20161;-87
2021/11/05 08:46:17;;;;;;;10.13;3.85;;;;;;;6.59;100.00;102358.78;4843496;29;20060;-87
2021/11/05 08:48:53;;;;;;;8.43;4.22;;;;;;;6.64;100.00;102364.88;4838962;29;20265;-87
2021/11/05 08:51:19;;;;;;;5.78;3.60;;;;;;;6.68;100.00;102364.00;4846700;29;20116;-87
2021/11/05 08:53:44;;;;;;;6.25;4.38;;;;;;;6.75;100.00;102367.47;4848502;29;20165;-87
2021/11/05 08:56:11;;;;;;;7.30;3.58;;;;;;;6.80;100.00;102368.31;4831705;29;20041;-87
2021/11/05 08:58:37;;;;;;;7.88;3.97;;;;;;;6.89;100.00;102375.25;4823987;29;20519;-86
2021/11/05 09:01:03;;;;;;;4.10;3.10;;;;;;;6.96;100.00;102378.75;4826940;29;20037;-87
2021/11/05 09:03:28;;;;;;;5.72;3.13;;;;;;;7.01;100.00;102382.22;4825188;29;20045;-87
2021/11/05 09:05:54;;;;;;;9.07;3.30;;;;;;;7.09;100.00;102385.66;4810912;29;20108;-86
2021/11/05 09:08:19;;;;;;;5.85;2.58;;;;;;;7.18;100.00;102392.59;4835401;29;20091;-86
2021/11/05 09:10:45;;;;;;;7.43;2.50;;;;;;;7.26;100.00;102393.47;4845199;29;20061;-87
2021/11/05 09:13:10;;;;;;;4.05;2.10;;;;;;;7.29;100.00;102396.06;4832205;29;20372;-86
2021/11/05 09:15:36;;;;;;;5.50;2.40;;;;;;;7.34;100.00;102389.09;4841652;29;20493;-86
2021/11/05 09:18:03;;;;;;;13.20;2.67;;;;;;;7.40;100.00;102389.06;4802680;29;20086;-87
2021/11/05 09:20:30;;;;;;;4.82;1.55;;;;;;;7.50;100.00;102400.34;4812223;29;20036;-86
2021/11/05 09:22:55;;;;;;;5.65;1.95;;;;;;;7.60;100.00;102401.19;4822741;29;20351;-87
2021/11/05 09:25:21;;;;;;;5.47;1.67;;;;;;;7.72;100.00;102408.97;4795955;29;20352;-86
2021/11/05 09:27:47;;;;;;;4.13;1.77;;;;;;;7.81;100.00;102413.28;4818602;29;20269;-86
2021/11/05 09:30:13;;;;;;;4.13;1.55;;;;;;;7.91;100.00;102414.09;4824715;29;20161;-87
2021/11/05 09:32:38;;;;;;;3.35;1.17;;;;;;;7.95;100.00;102418.44;4810061;29;20069;-87
2021/11/05 09:35:06;;;;;;;8.43;1.95;;;;;;;7.98;100.00;102421.03;4853308;29;20049;-86
2021/11/05 09:37:37;;;;;;;4.45;0.98;;;;;;;8.01;100.00;102424.50;4814802;29;20077;-87
2021/11/05 09:40:03;;;;;;;4.97;0.75;;;;;;;8.04;100.00;102431.44;4806421;29;20064;-86
2021/11/05 09:42:30;;;;;;;5.38;0.90;;;;;;;8.10;100.00;102428.81;4819729;29;20049;-87
2021/11/05 09:44:56;;;;;;;5.75;0.75;;;;;;;8.15;100.00;102441.81;4810138;29;20044;-87
2021/11/05 09:47:22;;;;;;;4.88;0.70;;;;;;;8.15;100.00;102449.66;4831118;29;20034;-87
2021/11/05 09:49:47;;;;;;;7.78;0.90;;;;;;;8.17;100.00;102446.16;4816055;29;20054;-87
2021/11/05 09:52:12;;;;;;;3.08;0.52;;;;;;;8.20;100.00;102456.56;4832038;29;20046;-86
2021/11/05 09:54:39;;;;;;;5.97;0.50;;;;;;;8.20;100.00;102459.19;4801071;29;20375;-86
2021/11/05 09:57:05;;;;;;;8.55;0.70;;;;;;;8.22;100.00;102462.69;4802357;29;20038;-86
2021/11/05 09:59:30;;;;;;;6.38;0.60;;;;;;;8.27;100.00;102468.72;4817040;29;20045;-86
2021/11/05 10:01:56;;;;;;;6.15;1.02;;;;;;;8.31;100.00;102474.78;4803573;29;20104;-86
2021/11/05 10:04:21;;;;;;;3.70;0.70;;;;;;;8.38;100.00;102481.72;4844335;29;20044;-86
2021/11/05 10:07:08;;;;;;;0.98;0.30;;;;;;;8.45;100.00;102480.84;4819711;29;20345;-86
2021/11/05 10:09:51;;;;;;;3.25;0.60;;;;;;;8.50;100.00;102486.06;4816689;29;20218;-86
2021/11/05 10:12:18;;;;;;;6.72;0.68;;;;;;;8.62;100.00;102487.72;4835342;29;20147;-86
2021/11/05 10:14:52;;;;;;;1.70;0.50;;;;;;;8.67;100.00;102485.09;4833635;29;20162;-86
2021/11/05 10:17:19;;;;;;;1.77;0.50;;;;;;;8.70;100.00;102485.06;4860390;29;20229;-86
2021/11/05 10:19:55;;;;;;;4.50;0.57;;;;;;;8.73;100.00;102485.94;4853959;29;20045;-87
2021/11/05 10:22:50;;;;;;;3.58;0.60;;;;;;;8.76;100.00;102488.50;4818304;29;20029;-86
2021/11/05 10:25:37;;;;;;;4.97;0.88;;;;;;;8.82;100.00;102487.59;4846876;29;20033;-86
2021/11/05 10:28:24;;;;;;;5.32;0.55;;;;;;;8.87;100.00;102493.66;4865222;29;20236;-86
2021/11/05 10:30:52;;;;;;;10.02;0.80;;;;;;;8.97;100.00;102497.94;4834221;29;20034;-86
2021/11/05 10:33:19;;;;;;;11.52;0.77;;;;;;;9.02;100.00;102495.28;4849770;29;20072;-86
2021/11/05 10:35:47;;;;;;;9.25;1.17;;;;;;;9.08;100.00;102503.09;4833434;29;20421;-86
2021/11/05 10:38:12;;;;;;;9.48;1.08;;;;;;;9.15;99.63;102490.81;4825675;29;20045;-86
2021/11/05 10:40:38;;;;;;;2.03;0.60;;;;;;;9.25;99.34;102496.84;4855539;29;20109;-86
2021/11/05 10:43:04;;;;;;;5.78;0.68;;;;;;;9.31;98.35;102502.00;4849315;29;20053;-86
2021/11/05 10:45:30;;;;;;;3.72;0.40;;;;;;;9.42;97.83;102500.16;4833168;29;20091;-86
2021/11/05 10:47:56;;;;;;;3.42;0.63;;;;;;;9.45;97.50;102501.91;4839325;29;21652;-86
2021/11/05 10:50:33;;;;;;;5.10;0.68;;;;;;;9.44;96.59;102497.53;4861267;29;20257;-87
2021/11/05 10:53:08;;;;;;;5.13;0.70;;;;;;;9.49;94.95;102516.69;4865034;29;20049;-87
2021/11/05 10:55:52;;;;;;;5.50;0.70;;;;;;;9.55;94.64;102512.25;4833698;29;20045;-87
2021/11/05 10:58:22;;;;;;;4.57;0.98;;;;;;;9.60;94.55;102517.44;4832684;29;20044;-86
2021/11/05 11:00:49;;;;;;;5.72;0.68;;;;;;;9.63;94.12;102514.78;4860377;29;20097;-87
2021/11/05 11:03:17;;;;;;;4.80;0.60;;;;;;;9.66;94.21;102520.00;4845902;29;20280;-86
2021/11/05 11:05:44;;;;;;;9.38;1.05;;;;;;;9.66;94.19;102519.13;4831292;29;20072;-86
2021/11/05 11:08:30;;;;;;;9.25;0.90;;;;;;;9.72;92.38;102522.56;4849155;29;20041;-87
2021/11/05 11:11:12;;;;;;;9.27;1.05;;;;;;;9.76;92.29;102521.63;4848795;29;20061;-87
2021/11/05 11:13:46;;;;;;;3.25;0.55;;;;;;;9.77;91.72;102523.38;4815166;29;20237;-86
2021/11/05 11:16:45;;;;;;;2.70;0.50;;;;;;;9.79;93.33;102525.97;4819414;29;20046;-87
2021/11/05 11:19:21;;;;;;;8.93;1.30;;;;;;;9.79;93.80;102531.22;4818900;29;20049;-87
2021/11/05 11:22:00;;;;;;;2.45;0.57;;;;;;;9.82;93.99;102525.06;4814170;29;20042;-86
2021/11/05 11:24:29;;;;;;;4.97;0.60;;;;;;;9.84;94.12;102536.38;4829053;29;20096;-86